sensor_id;sensor_type;location;lat;lon;timestamp;temperature;humidity
53802;DHT22;39709;53.334;6.534;2022-10-16T00:01:29;12.30;99.90
53802;DHT22;39709;53.334;6.534;2022-10-16T00:03:57;12.40;99.90
53802;DHT22;39709;53.334;6.534;2022-10-16T00:06:24;12.30;99.90
53802;DHT22;39709;53.334;6.534;2022-10-16T00:08:50;12.20;99.90
53802;DHT22;39709;53.334;6.534;2022-10-16T00:13:46;12.40;99.90
53802;DHT22;39709;53.334;6.534;2022-10-16T00:16:13;12.30;99.90
53802;DHT22;39709;53.334;6.534;2022-10-16T00:18:39;12.20;99.90
53802;DHT22;39709;53.334;6.534;2022-10-16T00:21:07;12.20;99.90
53802;DHT22;39709;53.334;6.534;2022-10-16T00:23:34;12.40;99.90
53802;DHT22;39709;53.334;6.534;2022-10-16T00:26:02;12.40;99.90
53802;DHT22;39709;53.334;6.534;2022-10-16T00:28:28;12.20;99.90
53802;DHT22;39709;53.334;6.534;2022-10-16T00:30:54;12.20;99.90
53802;DHT22;39709;53.334;6.534;2022-10-16T00:33:20;12.00;99.90
53802;DHT22;39709;53.334;6.534;2022-10-16T00:35:46;11.90;99.90
53802;DHT22;39709;53.334;6.534;2022-10-16T00:38:12;12.00;99.90
53802;DHT22;39709;53.334;6.534;2022-10-16T00:40:38;12.00;99.90
53802;DHT22;39709;53.334;6.534;2022-10-16T00:43:52;11.90;99.90
53802;DHT22;39709;53.334;6.534;2022-10-16T00:46:00;12.00;99.90
53802;DHT22;39709;53.334;6.534;2022-10-16T00:48:25;12.10;99.90
53802;DHT22;39709;53.334;6.534;2022-10-16T00:50:52;12.10;99.90
53802;DHT22;39709;53.334;6.534;2022-10-16T00:53:18;12.20;99.90
53802;DHT22;39709;53.334;6.534;2022-10-16T00:55:44;12.10;99.90
53802;DHT22;39709;53.334;6.534;2022-10-16T00:58:11;12.00;99.90
53802;DHT22;39709;53.334;6.534;2022-10-16T01:00:37;11.90;99.90
53802;DHT22;39709;53.334;6.534;2022-10-16T01:03:21;12.00;99.90
53802;DHT22;39709;53.334;6.534;2022-10-16T01:05:52;12.10;99.90
53802;DHT22;39709;53.334;6.534;2022-10-16T01:08:39;12.00;99.90
53802;DHT22;39709;53.334;6.534;2022-10-16T01:11:32;12.20;99.90
53802;DHT22;39709;53.334;6.534;2022-10-16T01:14:02;12.30;99.90
53802;DHT22;39709;53.334;6.534;2022-10-16T01:17:07;12.30;99.90
53802;DHT22;39709;53.334;6.534;2022-10-16T01:28:36;12.20;99.90
53802;DHT22;39709;53.334;6.534;2022-10-16T01:31:03;12.20;99.90
53802;DHT22;39709;53.334;6.534;2022-10-16T01:33:39;12.00;99.90
53802;DHT22;39709;53.334;6.534;2022-10-16T01:36:11;12.20;99.90
53802;DHT22;39709;53.334;6.534;2022-10-16T01:38:39;12.20;99.90
53802;DHT22;39709;53.334;6.534;2022-10-16T01:41:45;12.30;99.90
53802;DHT22;39709;53.334;6.534;2022-10-16T01:44:19;12.30;99.90
53802;DHT22;39709;53.334;6.534;2022-10-16T01:46:47;12.30;99.90
53802;DHT22;39709;53.334;6.534;2022-10-16T01:49:14;12.20;99.90
53802;DHT22;39709;53.334;6.534;2022-10-16T01:51:43;12.50;99.90
53802;DHT22;39709;53.334;6.534;2022-10-16T01:54:12;12.50;99.90
53802;DHT22;39709;53.334;6.534;2022-10-16T01:56:39;12.40;99.90
53802;DHT22;39709;53.334;6.534;2022-10-16T01:59:09;12.60;99.90
53802;DHT22;39709;53.334;6.534;2022-10-16T02:01:39;12.60;99.90
53802;DHT22;39709;53.334;6.534;2022-10-16T02:04:15;12.40;99.90
53802;DHT22;39709;53.334;6.534;2022-10-16T02:06:42;12.40;99.90
53802;DHT22;39709;53.334;6.534;2022-10-16T02:09:08;12.60;99.90
53802;DHT22;39709;53.334;6.534;2022-10-16T02:11:34;12.50;95.00
53802;DHT22;39709;53.334;6.534;2022-10-16T02:14:07;12.30;96.20
53802;DHT22;39709;53.334;6.534;2022-10-16T02:16:36;12.40;99.20
53802;DHT22;39709;53.334;6.534;2022-10-16T02:19:03;12.40;95.40
53802;DHT22;39709;53.334;6.534;2022-10-16T02:21:35;12.50;96.30
53802;DHT22;39709;53.334;6.534;2022-10-16T02:24:22;12.50;99.90
53802;DHT22;39709;53.334;6.534;2022-10-16T02:27:11;12.50;99.90
53802;DHT22;39709;53.334;6.534;2022-10-16T02:29:43;12.50;99.90
53802;DHT22;39709;53.334;6.534;2022-10-16T02:32:16;12.60;99.30
53802;DHT22;39709;53.334;6.534;2022-10-16T02:34:44;12.50;90.90
53802;DHT22;39709;53.334;6.534;2022-10-16T02:37:11;12.40;97.00
53802;DHT22;39709;53.334;6.534;2022-10-16T02:39:38;12.30;95.50
53802;DHT22;39709;53.334;6.534;2022-10-16T02:42:04;12.50;99.90
53802;DHT22;39709;53.334;6.534;2022-10-16T02:44:30;12.50;99.90
53802;DHT22;39709;53.334;6.534;2022-10-16T02:46:55;12.50;96.50
53802;DHT22;39709;53.334;6.534;2022-10-16T02:49:21;12.30;87.40
53802;DHT22;39709;53.334;6.534;2022-10-16T02:51:46;12.40;97.60
53802;DHT22;39709;53.334;6.534;2022-10-16T02:54:12;12.50;99.50
53802;DHT22;39709;53.334;6.534;2022-10-16T02:56:38;12.30;94.40
53802;DHT22;39709;53.334;6.534;2022-10-16T02:59:04;12.60;99.90
53802;DHT22;39709;53.334;6.534;2022-10-16T03:01:29;12.60;97.80
53802;DHT22;39709;53.334;6.534;2022-10-16T03:03:55;12.60;96.20
53802;DHT22;39709;53.334;6.534;2022-10-16T03:06:21;12.40;77.60
53802;DHT22;39709;53.334;6.534;2022-10-16T03:08:46;12.50;89.00
53802;DHT22;39709;53.334;6.534;2022-10-16T03:11:12;12.30;64.30
53802;DHT22;39709;53.334;6.534;2022-10-16T03:13:38;12.10;68.50
53802;DHT22;39709;53.334;6.534;2022-10-16T03:16:04;12.30;94.80
53802;DHT22;39709;53.334;6.534;2022-10-16T03:18:29;12.20;91.60
53802;DHT22;39709;53.334;6.534;2022-10-16T03:20:55;12.20;66.30
53802;DHT22;39709;53.334;6.534;2022-10-16T03:23:20;12.10;75.70
53802;DHT22;39709;53.334;6.534;2022-10-16T03:25:46;12.20;91.50
53802;DHT22;39709;53.334;6.534;2022-10-16T03:28:12;12.20;97.00
53802;DHT22;39709;53.334;6.534;2022-10-16T03:30:37;12.10;99.90
53802;DHT22;39709;53.334;6.534;2022-10-16T03:33:05;12.10;87.80
53802;DHT22;39709;53.334;6.534;2022-10-16T03:35:31;12.00;80.90
53802;DHT22;39709;53.334;6.534;2022-10-16T03:37:57;11.90;88.40
53802;DHT22;39709;53.334;6.534;2022-10-16T03:40:23;12.00;99.90
53802;DHT22;39709;53.334;6.534;2022-10-16T03:42:48;12.00;99.90
53802;DHT22;39709;53.334;6.534;2022-10-16T03:45:14;12.00;99.90
53802;DHT22;39709;53.334;6.534;2022-10-16T03:47:40;11.80;86.80
53802;DHT22;39709;53.334;6.534;2022-10-16T03:50:06;12.00;99.90
53802;DHT22;39709;53.334;6.534;2022-10-16T03:52:32;12.00;99.30
53802;DHT22;39709;53.334;6.534;2022-10-16T03:54:58;11.90;99.90
53802;DHT22;39709;53.334;6.534;2022-10-16T03:57:24;12.00;99.90
53802;DHT22;39709;53.334;6.534;2022-10-16T03:59:49;12.00;99.90
53802;DHT22;39709;53.334;6.534;2022-10-16T04:02:16;12.10;99.90
53802;DHT22;39709;53.334;6.534;2022-10-16T04:04:41;12.10;99.90
53802;DHT22;39709;53.334;6.534;2022-10-16T04:07:07;12.00;99.90
53802;DHT22;39709;53.334;6.534;2022-10-16T04:09:33;12.00;99.90
53802;DHT22;39709;53.334;6.534;2022-10-16T04:11:58;12.00;99.90
53802;DHT22;39709;53.334;6.534;2022-10-16T04:14:24;11.90;99.90
53802;DHT22;39709;53.334;6.534;2022-10-16T04:16:50;12.00;99.90
53802;DHT22;39709;53.334;6.534;2022-10-16T04:19:15;12.30;99.90
53802;DHT22;39709;53.334;6.534;2022-10-16T04:21:41;12.10;99.90
53802;DHT22;39709;53.334;6.534;2022-10-16T04:24:07;12.10;96.90
53802;DHT22;39709;53.334;6.534;2022-10-16T04:26:32;12.10;99.90
53802;DHT22;39709;53.334;6.534;2022-10-16T04:28:58;12.10;99.90
53802;DHT22;39709;53.334;6.534;2022-10-16T04:31:24;12.20;99.90
53802;DHT22;39709;53.334;6.534;2022-10-16T04:33:49;12.10;99.90
53802;DHT22;39709;53.334;6.534;2022-10-16T04:36:15;12.30;99.90
53802;DHT22;39709;53.334;6.534;2022-10-16T04:38:41;12.10;99.90
53802;DHT22;39709;53.334;6.534;2022-10-16T04:41:07;12.10;93.90
53802;DHT22;39709;53.334;6.534;2022-10-16T04:43:33;12.10;99.90
53802;DHT22;39709;53.334;6.534;2022-10-16T04:45:59;12.40;99.90
53802;DHT22;39709;53.334;6.534;2022-10-16T04:48:25;12.20;98.70
53802;DHT22;39709;53.334;6.534;2022-10-16T04:50:50;12.30;99.90
53802;DHT22;39709;53.334;6.534;2022-10-16T04:53:16;12.40;99.90
53802;DHT22;39709;53.334;6.534;2022-10-16T04:55:42;12.40;99.90
53802;DHT22;39709;53.334;6.534;2022-10-16T04:58:08;12.40;99.90
53802;DHT22;39709;53.334;6.534;2022-10-16T05:00:34;12.30;99.90
53802;DHT22;39709;53.334;6.534;2022-10-16T05:03:00;12.50;94.50
53802;DHT22;39709;53.334;6.534;2022-10-16T05:05:27;12.40;96.90
53802;DHT22;39709;53.334;6.534;2022-10-16T05:07:53;12.30;93.00
53802;DHT22;39709;53.334;6.534;2022-10-16T05:10:19;12.30;99.10
53802;DHT22;39709;53.334;6.534;2022-10-16T05:12:46;12.20;92.60
53802;DHT22;39709;53.334;6.534;2022-10-16T05:15:12;12.40;95.20
53802;DHT22;39709;53.334;6.534;2022-10-16T05:17:38;12.20;97.30
53802;DHT22;39709;53.334;6.534;2022-10-16T05:20:04;12.40;99.90
53802;DHT22;39709;53.334;6.534;2022-10-16T05:22:29;12.30;96.80
53802;DHT22;39709;53.334;6.534;2022-10-16T05:24:55;12.30;98.50
53802;DHT22;39709;53.334;6.534;2022-10-16T05:27:21;12.20;97.60
53802;DHT22;39709;53.334;6.534;2022-10-16T05:29:47;12.30;98.90
53802;DHT22;39709;53.334;6.534;2022-10-16T05:32:15;12.30;96.30
53802;DHT22;39709;53.334;6.534;2022-10-16T05:34:41;12.30;97.10
53802;DHT22;39709;53.334;6.534;2022-10-16T05:37:07;12.50;96.40
53802;DHT22;39709;53.334;6.534;2022-10-16T05:39:33;12.40;93.10
53802;DHT22;39709;53.334;6.534;2022-10-16T05:41:58;12.40;93.60
53802;DHT22;39709;53.334;6.534;2022-10-16T05:44:24;12.30;94.10
53802;DHT22;39709;53.334;6.534;2022-10-16T05:46:50;12.50;94.20
53802;DHT22;39709;53.334;6.534;2022-10-16T05:49:15;12.40;96.30
53802;DHT22;39709;53.334;6.534;2022-10-16T05:51:41;12.30;96.50
53802;DHT22;39709;53.334;6.534;2022-10-16T05:54:07;12.30;99.90
53802;DHT22;39709;53.334;6.534;2022-10-16T05:56:33;12.30;99.90
53802;DHT22;39709;53.334;6.534;2022-10-16T05:58:59;12.20;99.30
53802;DHT22;39709;53.334;6.534;2022-10-16T06:01:25;12.10;99.60
53802;DHT22;39709;53.334;6.534;2022-10-16T06:03:51;12.10;99.90
53802;DHT22;39709;53.334;6.534;2022-10-16T06:06:22;12.10;99.90
53802;DHT22;39709;53.334;6.534;2022-10-16T06:08:49;12.20;99.90
53802;DHT22;39709;53.334;6.534;2022-10-16T06:11:18;12.00;99.90
53802;DHT22;39709;53.334;6.534;2022-10-16T06:13:44;12.10;99.90
53802;DHT22;39709;53.334;6.534;2022-10-16T06:16:11;12.00;99.90
53802;DHT22;39709;53.334;6.534;2022-10-16T06:18:38;11.80;99.90
53802;DHT22;39709;53.334;6.534;2022-10-16T06:21:24;12.20;99.90
53802;DHT22;39709;53.334;6.534;2022-10-16T06:23:51;12.00;99.90
53802;DHT22;39709;53.334;6.534;2022-10-16T06:26:19;11.90;99.90
53802;DHT22;39709;53.334;6.534;2022-10-16T06:28:45;11.90;99.90
53802;DHT22;39709;53.334;6.534;2022-10-16T06:31:11;12.00;99.90
53802;DHT22;39709;53.334;6.534;2022-10-16T06:33:38;12.00;99.90
53802;DHT22;39709;53.334;6.534;2022-10-16T06:36:11;12.10;99.90
53802;DHT22;39709;53.334;6.534;2022-10-16T06:38:38;12.30;99.90
53802;DHT22;39709;53.334;6.534;2022-10-16T06:41:05;12.20;99.90
53802;DHT22;39709;53.334;6.534;2022-10-16T06:43:31;12.10;99.90
53802;DHT22;39709;53.334;6.534;2022-10-16T06:45:58;12.10;99.90
53802;DHT22;39709;53.334;6.534;2022-10-16T06:48:25;12.00;99.90
53802;DHT22;39709;53.334;6.534;2022-10-16T06:51:02;12.20;99.90
53802;DHT22;39709;53.334;6.534;2022-10-16T06:53:32;12.10;99.90
53802;DHT22;39709;53.334;6.534;2022-10-16T06:56:01;12.30;99.90
53802;DHT22;39709;53.334;6.534;2022-10-16T06:58:31;12.30;99.90
53802;DHT22;39709;53.334;6.534;2022-10-16T07:00:57;12.10;99.90
53802;DHT22;39709;53.334;6.534;2022-10-16T07:03:22;12.10;99.90
53802;DHT22;39709;53.334;6.534;2022-10-16T07:05:48;12.50;99.90
53802;DHT22;39709;53.334;6.534;2022-10-16T07:08:14;12.40;99.90
53802;DHT22;39709;53.334;6.534;2022-10-16T07:10:40;12.40;99.90
53802;DHT22;39709;53.334;6.534;2022-10-16T07:13:05;12.40;99.90
53802;DHT22;39709;53.334;6.534;2022-10-16T07:15:33;12.70;99.90
53802;DHT22;39709;53.334;6.534;2022-10-16T07:17:59;12.70;96.80
53802;DHT22;39709;53.334;6.534;2022-10-16T07:20:25;12.70;91.80
53802;DHT22;39709;53.334;6.534;2022-10-16T07:22:52;12.80;84.40
53802;DHT22;39709;53.334;6.534;2022-10-16T07:25:18;12.90;77.00
53802;DHT22;39709;53.334;6.534;2022-10-16T07:27:43;12.60;80.00
53802;DHT22;39709;53.334;6.534;2022-10-16T07:30:09;12.70;74.00
53802;DHT22;39709;53.334;6.534;2022-10-16T07:32:35;12.80;75.10
53802;DHT22;39709;53.334;6.534;2022-10-16T07:35:01;12.70;67.20
53802;DHT22;39709;53.334;6.534;2022-10-16T07:37:27;12.70;68.90
53802;DHT22;39709;53.334;6.534;2022-10-16T07:39:52;12.90;59.80
53802;DHT22;39709;53.334;6.534;2022-10-16T07:42:18;13.10;46.50
53802;DHT22;39709;53.334;6.534;2022-10-16T07:44:45;13.00;46.70
53802;DHT22;39709;53.334;6.534;2022-10-16T07:47:11;13.10;44.70
53802;DHT22;39709;53.334;6.534;2022-10-16T07:49:36;13.10;33.30
53802;DHT22;39709;53.334;6.534;2022-10-16T07:52:02;13.10;35.10
53802;DHT22;39709;53.334;6.534;2022-10-16T07:54:28;13.10;30.20
53802;DHT22;39709;53.334;6.534;2022-10-16T07:56:53;13.10;29.30
53802;DHT22;39709;53.334;6.534;2022-10-16T07:59:19;12.90;36.50
53802;DHT22;39709;53.334;6.534;2022-10-16T08:01:45;12.90;48.50
53802;DHT22;39709;53.334;6.534;2022-10-16T08:04:10;13.10;46.70
53802;DHT22;39709;53.334;6.534;2022-10-16T08:06:38;13.00;41.70
53802;DHT22;39709;53.334;6.534;2022-10-16T08:09:04;12.90;41.80
53802;DHT22;39709;53.334;6.534;2022-10-16T08:11:30;13.20;28.90
53802;DHT22;39709;53.334;6.534;2022-10-16T08:13:56;13.10;40.00
53802;DHT22;39709;53.334;6.534;2022-10-16T08:16:22;13.20;24.30
53802;DHT22;39709;53.334;6.534;2022-10-16T08:18:48;13.20;24.20
53802;DHT22;39709;53.334;6.534;2022-10-16T08:21:16;13.40;20.00
53802;DHT22;39709;53.334;6.534;2022-10-16T08:23:42;13.40;25.00
53802;DHT22;39709;53.334;6.534;2022-10-16T08:26:09;13.30;19.00
53802;DHT22;39709;53.334;6.534;2022-10-16T08:28:36;13.40;8.20
53802;DHT22;39709;53.334;6.534;2022-10-16T08:31:10;13.50;6.20
53802;DHT22;39709;53.334;6.534;2022-10-16T08:33:37;13.60;1.00
53802;DHT22;39709;53.334;6.534;2022-10-16T08:36:04;13.60;1.00
53802;DHT22;39709;53.334;6.534;2022-10-16T08:38:31;13.70;1.00
53802;DHT22;39709;53.334;6.534;2022-10-16T08:44:00;13.70;1.00
53802;DHT22;39709;53.334;6.534;2022-10-16T08:49:11;13.80;1.00
53802;DHT22;39709;53.334;6.534;2022-10-16T08:51:39;13.80;1.00
53802;DHT22;39709;53.334;6.534;2022-10-16T08:54:10;14.00;1.00
53802;DHT22;39709;53.334;6.534;2022-10-16T08:56:40;14.10;1.00
53802;DHT22;39709;53.334;6.534;2022-10-16T08:59:10;14.10;1.00
53802;DHT22;39709;53.334;6.534;2022-10-16T09:01:42;14.20;1.00
53802;DHT22;39709;53.334;6.534;2022-10-16T09:07:11;14.20;1.00
53802;DHT22;39709;53.334;6.534;2022-10-16T09:10:02;14.20;1.00
53802;DHT22;39709;53.334;6.534;2022-10-16T09:12:58;14.00;1.00
53802;DHT22;39709;53.334;6.534;2022-10-16T09:15:39;14.10;1.00
53802;DHT22;39709;53.334;6.534;2022-10-16T09:18:27;14.00;1.00
53802;DHT22;39709;53.334;6.534;2022-10-16T09:21:16;13.80;17.40
53802;DHT22;39709;53.334;6.534;2022-10-16T09:23:43;14.00;1.00
53802;DHT22;39709;53.334;6.534;2022-10-16T09:26:12;14.10;1.00
53802;DHT22;39709;53.334;6.534;2022-10-16T09:28:38;14.10;3.30
53802;DHT22;39709;53.334;6.534;2022-10-16T09:31:04;14.10;8.20
53802;DHT22;39709;53.334;6.534;2022-10-16T09:33:34;14.20;1.00
53802;DHT22;39709;53.334;6.534;2022-10-16T09:36:03;14.20;1.00
53802;DHT22;39709;53.334;6.534;2022-10-16T09:38:35;14.20;5.90
53802;DHT22;39709;53.334;6.534;2022-10-16T09:41:20;14.40;1.00
53802;DHT22;39709;53.334;6.534;2022-10-16T09:44:16;14.60;1.00
53802;DHT22;39709;53.334;6.534;2022-10-16T09:46:43;14.70;1.00
53802;DHT22;39709;53.334;6.534;2022-10-16T09:49:38;14.80;1.00
53802;DHT22;39709;53.334;6.534;2022-10-16T09:52:09;14.90;1.00
53802;DHT22;39709;53.334;6.534;2022-10-16T09:54:36;14.90;1.00
53802;DHT22;39709;53.334;6.534;2022-10-16T09:57:06;14.90;1.00
53802;DHT22;39709;53.334;6.534;2022-10-16T09:59:32;14.70;1.00
53802;DHT22;39709;53.334;6.534;2022-10-16T10:02:02;14.90;1.00
53802;DHT22;39709;53.334;6.534;2022-10-16T10:04:39;14.90;1.00
53802;DHT22;39709;53.334;6.534;2022-10-16T10:07:07;14.90;1.00
53802;DHT22;39709;53.334;6.534;2022-10-16T10:09:44;14.90;1.00
53802;DHT22;39709;53.334;6.534;2022-10-16T10:12:28;15.00;1.00
53802;DHT22;39709;53.334;6.534;2022-10-16T10:15:03;15.00;1.00
53802;DHT22;39709;53.334;6.534;2022-10-16T10:17:29;15.00;1.00
53802;DHT22;39709;53.334;6.534;2022-10-16T10:19:57;15.00;1.00
53802;DHT22;39709;53.334;6.534;2022-10-16T10:25:15;15.20;1.00
53802;DHT22;39709;53.334;6.534;2022-10-16T10:43:52;15.80;1.00
53802;DHT22;39709;53.334;6.534;2022-10-16T10:55:33;15.60;1.00
53802;DHT22;39709;53.334;6.534;2022-10-16T10:57:49;15.60;1.00
53802;DHT22;39709;53.334;6.534;2022-10-16T11:06:07;15.90;1.00
53802;DHT22;39709;53.334;6.534;2022-10-16T11:08:36;16.00;1.00
53802;DHT22;39709;53.334;6.534;2022-10-16T11:16:35;16.00;1.00
53802;DHT22;39709;53.334;6.534;2022-10-16T11:21:54;16.20;1.00
53802;DHT22;39709;53.334;6.534;2022-10-16T11:24:36;16.10;1.00
53802;DHT22;39709;53.334;6.534;2022-10-16T11:27:08;16.00;1.00
53802;DHT22;39709;53.334;6.534;2022-10-16T11:29:35;15.90;1.00
53802;DHT22;39709;53.334;6.534;2022-10-16T11:32:31;16.00;1.00
53802;DHT22;39709;53.334;6.534;2022-10-16T11:35:06;16.00;1.00
53802;DHT22;39709;53.334;6.534;2022-10-16T11:37:40;16.00;1.00
53802;DHT22;39709;53.334;6.534;2022-10-16T11:40:21;16.10;1.00
53802;DHT22;39709;53.334;6.534;2022-10-16T11:42:57;16.20;1.00
53802;DHT22;39709;53.334;6.534;2022-10-16T11:45:34;16.20;1.00
53802;DHT22;39709;53.334;6.534;2022-10-16T11:50:53;16.10;1.00
53802;DHT22;39709;53.334;6.534;2022-10-16T11:56:12;16.00;1.00
53802;DHT22;39709;53.334;6.534;2022-10-16T12:01:52;15.50;1.00
53802;DHT22;39709;53.334;6.534;2022-10-16T12:09:36;15.50;1.00
53802;DHT22;39709;53.334;6.534;2022-10-16T12:12:02;15.50;1.00
53802;DHT22;39709;53.334;6.534;2022-10-16T12:14:40;15.60;1.00
53802;DHT22;39709;53.334;6.534;2022-10-16T12:17:34;15.60;1.00
53802;DHT22;39709;53.334;6.534;2022-10-16T12:22:54;15.70;1.00
53802;DHT22;39709;53.334;6.534;2022-10-16T12:25:39;15.80;1.00
53802;DHT22;39709;53.334;6.534;2022-10-16T12:30:41;15.90;1.00
53802;DHT22;39709;53.334;6.534;2022-10-16T12:33:26;15.90;1.00
53802;DHT22;39709;53.334;6.534;2022-10-16T12:35:53;15.90;1.00
53802;DHT22;39709;53.334;6.534;2022-10-16T12:41:01;16.00;1.00
53802;DHT22;39709;53.334;6.534;2022-10-16T12:43:42;15.90;1.00
53802;DHT22;39709;53.334;6.534;2022-10-16T12:48:35;15.90;1.00
53802;DHT22;39709;53.334;6.534;2022-10-16T12:51:21;16.00;1.00
53802;DHT22;39709;53.334;6.534;2022-10-16T13:04:50;15.90;1.00
53802;DHT22;39709;53.334;6.534;2022-10-16T13:21:54;15.60;1.00
53802;DHT22;39709;53.334;6.534;2022-10-16T13:27:04;15.50;1.00
53802;DHT22;39709;53.334;6.534;2022-10-16T13:29:33;15.50;1.00
53802;DHT22;39709;53.334;6.534;2022-10-16T13:32:01;15.50;1.00
53802;DHT22;39709;53.334;6.534;2022-10-16T13:34:32;15.50;1.00
53802;DHT22;39709;53.334;6.534;2022-10-16T13:36:58;15.50;1.00
53802;DHT22;39709;53.334;6.534;2022-10-16T13:39:28;15.50;1.00
53802;DHT22;39709;53.334;6.534;2022-10-16T13:42:18;15.40;1.00
53802;DHT22;39709;53.334;6.534;2022-10-16T13:44:52;15.40;1.00
53802;DHT22;39709;53.334;6.534;2022-10-16T13:47:29;15.40;1.00
53802;DHT22;39709;53.334;6.534;2022-10-16T13:50:09;15.30;1.00
53802;DHT22;39709;53.334;6.534;2022-10-16T13:52:36;15.30;1.00
53802;DHT22;39709;53.334;6.534;2022-10-16T13:55:13;15.30;1.00
53802;DHT22;39709;53.334;6.534;2022-10-16T13:57:39;15.40;1.00
53802;DHT22;39709;53.334;6.534;2022-10-16T14:00:38;15.50;1.00
53802;DHT22;39709;53.334;6.534;2022-10-16T14:03:21;15.40;1.00
53802;DHT22;39709;53.334;6.534;2022-10-16T14:05:57;15.40;1.00
53802;DHT22;39709;53.334;6.534;2022-10-16T14:08:25;15.40;1.00
53802;DHT22;39709;53.334;6.534;2022-10-16T14:10:59;15.40;1.00
53802;DHT22;39709;53.334;6.534;2022-10-16T14:13:32;15.30;1.00
53802;DHT22;39709;53.334;6.534;2022-10-16T14:16:02;15.30;1.00
53802;DHT22;39709;53.334;6.534;2022-10-16T14:18:30;15.30;1.00
53802;DHT22;39709;53.334;6.534;2022-10-16T14:21:03;15.30;1.00
53802;DHT22;39709;53.334;6.534;2022-10-16T14:23:33;15.40;1.00
53802;DHT22;39709;53.334;6.534;2022-10-16T14:28:35;15.40;1.00
53802;DHT22;39709;53.334;6.534;2022-10-16T14:31:02;15.50;1.00
53802;DHT22;39709;53.334;6.534;2022-10-16T14:36:12;15.50;1.00
53802;DHT22;39709;53.334;6.534;2022-10-16T14:38:40;15.50;1.00
53802;DHT22;39709;53.334;6.534;2022-10-16T14:41:06;15.40;1.00
53802;DHT22;39709;53.334;6.534;2022-10-16T14:43:34;15.40;1.00
53802;DHT22;39709;53.334;6.534;2022-10-16T14:46:03;15.40;1.00
53802;DHT22;39709;53.334;6.534;2022-10-16T14:48:29;15.40;1.00
53802;DHT22;39709;53.334;6.534;2022-10-16T14:50:55;15.30;1.00
53802;DHT22;39709;53.334;6.534;2022-10-16T14:53:21;15.30;1.00
53802;DHT22;39709;53.334;6.534;2022-10-16T14:55:47;15.30;1.00
53802;DHT22;39709;53.334;6.534;2022-10-16T14:58:19;15.20;1.00
53802;DHT22;39709;53.334;6.534;2022-10-16T15:00:46;15.10;1.00
53802;DHT22;39709;53.334;6.534;2022-10-16T15:03:12;15.00;1.00
53802;DHT22;39709;53.334;6.534;2022-10-16T15:05:38;15.00;1.00
53802;DHT22;39709;53.334;6.534;2022-10-16T15:08:03;14.90;1.00
53802;DHT22;39709;53.334;6.534;2022-10-16T15:10:31;14.80;1.00
53802;DHT22;39709;53.334;6.534;2022-10-16T15:12:58;14.70;1.00
53802;DHT22;39709;53.334;6.534;2022-10-16T15:15:32;14.70;1.00
53802;DHT22;39709;53.334;6.534;2022-10-16T15:17:59;14.60;1.00
53802;DHT22;39709;53.334;6.534;2022-10-16T15:20:28;14.60;1.00
53802;DHT22;39709;53.334;6.534;2022-10-16T15:22:54;14.50;1.00
53802;DHT22;39709;53.334;6.534;2022-10-16T15:27:57;14.50;1.00
53802;DHT22;39709;53.334;6.534;2022-10-16T15:30:23;14.50;1.00
53802;DHT22;39709;53.334;6.534;2022-10-16T15:32:49;14.50;1.00
53802;DHT22;39709;53.334;6.534;2022-10-16T15:35:15;14.50;1.00
53802;DHT22;39709;53.334;6.534;2022-10-16T15:37:41;14.40;1.00
53802;DHT22;39709;53.334;6.534;2022-10-16T15:40:08;14.40;1.00
53802;DHT22;39709;53.334;6.534;2022-10-16T15:42:34;14.30;1.00
53802;DHT22;39709;53.334;6.534;2022-10-16T15:44:59;14.30;1.00
53802;DHT22;39709;53.334;6.534;2022-10-16T15:47:25;14.20;1.00
53802;DHT22;39709;53.334;6.534;2022-10-16T15:49:51;14.20;1.00
53802;DHT22;39709;53.334;6.534;2022-10-16T15:52:16;14.10;1.00
53802;DHT22;39709;53.334;6.534;2022-10-16T15:54:42;14.10;1.00
53802;DHT22;39709;53.334;6.534;2022-10-16T15:57:08;14.00;1.00
53802;DHT22;39709;53.334;6.534;2022-10-16T15:59:34;13.90;1.00
53802;DHT22;39709;53.334;6.534;2022-10-16T16:01:59;13.90;1.00
53802;DHT22;39709;53.334;6.534;2022-10-16T16:04:25;13.90;1.00
53802;DHT22;39709;53.334;6.534;2022-10-16T16:06:51;13.80;1.00
53802;DHT22;39709;53.334;6.534;2022-10-16T16:09:16;13.70;1.00
53802;DHT22;39709;53.334;6.534;2022-10-16T16:11:42;13.70;1.00
53802;DHT22;39709;53.334;6.534;2022-10-16T16:14:12;13.60;1.00
53802;DHT22;39709;53.334;6.534;2022-10-16T16:16:38;13.60;1.00
53802;DHT22;39709;53.334;6.534;2022-10-16T16:19:05;13.50;1.00
53802;DHT22;39709;53.334;6.534;2022-10-16T16:21:32;13.40;1.00
53802;DHT22;39709;53.334;6.534;2022-10-16T16:23:57;13.30;1.00
53802;DHT22;39709;53.334;6.534;2022-10-16T16:26:24;13.30;1.00
53802;DHT22;39709;53.334;6.534;2022-10-16T16:28:57;13.20;1.00
53802;DHT22;39709;53.334;6.534;2022-10-16T16:31:28;13.20;1.00
53802;DHT22;39709;53.334;6.534;2022-10-16T16:33:54;13.20;1.00
53802;DHT22;39709;53.334;6.534;2022-10-16T16:36:20;13.10;1.00
53802;DHT22;39709;53.334;6.534;2022-10-16T16:38:46;13.10;1.00
53802;DHT22;39709;53.334;6.534;2022-10-16T16:41:16;13.10;1.00
53802;DHT22;39709;53.334;6.534;2022-10-16T16:43:42;13.00;1.00
53802;DHT22;39709;53.334;6.534;2022-10-16T16:46:08;12.90;1.00
53802;DHT22;39709;53.334;6.534;2022-10-16T16:48:34;12.90;23.50
53802;DHT22;39709;53.334;6.534;2022-10-16T16:51:07;12.80;26.30
53802;DHT22;39709;53.334;6.534;2022-10-16T16:53:37;12.70;30.00
53802;DHT22;39709;53.334;6.534;2022-10-16T16:56:05;12.70;36.70
53802;DHT22;39709;53.334;6.534;2022-10-16T16:58:31;12.70;28.00
53802;DHT22;39709;53.334;6.534;2022-10-16T17:00:57;12.70;45.80
53802;DHT22;39709;53.334;6.534;2022-10-16T17:03:28;12.60;41.40
53802;DHT22;39709;53.334;6.534;2022-10-16T17:05:58;12.60;32.30
53802;DHT22;39709;53.334;6.534;2022-10-16T17:08:24;12.40;36.90
53802;DHT22;39709;53.334;6.534;2022-10-16T17:10:49;12.40;35.70
53802;DHT22;39709;53.334;6.534;2022-10-16T17:13:18;12.30;51.60
53802;DHT22;39709;53.334;6.534;2022-10-16T17:15:48;12.10;43.40
53802;DHT22;39709;53.334;6.534;2022-10-16T17:18:15;12.10;67.20
53802;DHT22;39709;53.334;6.534;2022-10-16T17:20:41;12.20;48.70
53802;DHT22;39709;53.334;6.534;2022-10-16T17:23:07;12.10;71.30
53802;DHT22;39709;53.334;6.534;2022-10-16T17:25:40;12.00;72.80
53802;DHT22;39709;53.334;6.534;2022-10-16T17:28:07;12.10;68.60
53802;DHT22;39709;53.334;6.534;2022-10-16T17:30:33;11.90;71.60
53802;DHT22;39709;53.334;6.534;2022-10-16T17:33:00;12.00;80.30
53802;DHT22;39709;53.334;6.534;2022-10-16T17:35:27;11.90;88.30
53802;DHT22;39709;53.334;6.534;2022-10-16T17:37:52;11.80;85.20
53802;DHT22;39709;53.334;6.534;2022-10-16T17:40:19;11.80;88.70
53802;DHT22;39709;53.334;6.534;2022-10-16T17:42:45;11.70;75.00
53802;DHT22;39709;53.334;6.534;2022-10-16T17:45:13;11.90;90.50
53802;DHT22;39709;53.334;6.534;2022-10-16T17:47:39;11.80;87.10
53802;DHT22;39709;53.334;6.534;2022-10-16T17:50:07;11.60;82.70
53802;DHT22;39709;53.334;6.534;2022-10-16T17:52:33;11.70;84.30